Time;durP1;ratioP1;P1;durP2;ratioP2;P2;SDS_P1;SDS_P2;PMS_P1;PMS_P2;Temp;Humidity;BMP_temperature;BMP_pressure;BME280_temperature;BME280_humidity;BME280_pressure;Samples;Min_cycle;Max_cycle;Signal;HPM_P1;HPM_P2
2021/04/23 00:01:07;;;;;;;8.35;2.67;;;;;;;23.05;41.05;100070.66;4515756;31;33915;-60
2021/04/23 00:03:44;;;;;;;11.07;2.05;;;;;;;23.05;41.06;100073.38;4501201;31;35223;-58
2021/04/23 00:06:14;;;;;;;7.35;2.40;;;;;;;23.05;41.08;100072.53;4515251;31;33319;-61
2021/04/23 00:08:42;;;;;;;6.32;2.37;;;;;;;23.04;41.09;100069.00;4514339;31;33781;-60
2021/04/23 00:11:10;;;;;;;7.20;2.50;;;;;;;23.04;41.06;100074.44;4515674;31;33564;-61
2021/04/23 00:13:38;;;;;;;8.38;2.45;;;;;;;23.04;41.12;100077.16;4515225;31;34675;-58
2021/04/23 00:16:05;;;;;;;8.55;2.20;;;;;;;23.04;41.15;100079.88;4515575;31;31996;-61
2021/04/23 00:18:32;;;;;;;7.30;1.90;;;;;;;23.04;41.16;100081.75;4514224;31;35378;-58
2021/04/23 00:20:59;;;;;;;5.95;2.08;;;;;;;23.05;41.08;100086.16;4507023;31;34712;-61
2021/04/23 00:23:27;;;;;;;7.60;2.10;;;;;;;23.05;41.10;100077.97;4527638;31;33835;-61
2021/04/23 00:26:06;;;;;;;7.78;2.50;;;;;;;23.04;41.10;100081.75;4531293;31;33352;-61
2021/04/23 00:28:34;;;;;;;9.05;2.20;;;;;;;23.04;41.04;100079.03;4519868;31;33773;-60
2021/04/23 00:31:06;;;;;;;10.23;2.65;;;;;;;23.03;41.13;100080.91;4515367;31;33856;-61
2021/04/23 00:33:33;;;;;;;6.72;2.35;;;;;;;23.03;41.09;100082.78;4514967;31;33754;-61
2021/04/23 00:36:02;;;;;;;8.27;2.42;;;;;;;23.02;41.13;100090.12;4529075;31;33400;-56
2021/04/23 00:38:30;;;;;;;6.25;1.83;;;;;;;23.03;41.12;100080.06;4522179;31;33747;-60
2021/04/23 00:41:05;;;;;;;6.95;2.42;;;;;;;23.01;41.23;100083.03;4515451;31;33706;-61
2021/04/23 00:43:34;;;;;;;5.97;2.45;;;;;;;23.03;41.19;100080.06;4523343;31;34720;-61
2021/04/23 00:46:07;;;;;;;5.45;1.90;;;;;;;23.03;41.17;100077.34;4529417;31;32246;-60
2021/04/23 00:48:35;;;;;;;5.65;2.22;;;;;;;23.03;41.26;100069.19;4530419;31;33787;-60
2021/04/23 00:51:08;;;;;;;6.85;2.37;;;;;;;23.02;41.22;100073.78;4531098;31;33892;-60
2021/04/23 00:53:38;;;;;;;5.95;2.20;;;;;;;23.03;41.19;100071.91;4530314;31;34845;-59
2021/04/23 00:56:07;;;;;;;5.62;1.95;;;;;;;23.03;41.12;100082.78;4516415;31;33983;-61
2021/04/23 00:58:35;;;;;;;5.63;2.00;;;;;;;23.02;41.37;100084.69;4519524;31;33883;-59
2021/04/23 01:01:11;;;;;;;4.15;1.70;;;;;;;23.03;41.42;100086.34;4514800;31;34224;-60
2021/04/23 01:03:39;;;;;;;5.10;1.92;;;;;;;23.03;41.47;100082.78;4514328;31;33825;-59
2021/04/23 01:06:11;;;;;;;8.35;2.17;;;;;;;23.02;41.32;100084.69;4513973;31;33109;-61
2021/04/23 01:08:39;;;;;;;4.87;2.00;;;;;;;23.01;41.33;100077.56;4514661;31;33957;-61
2021/04/23 01:11:06;;;;;;;6.32;1.90;;;;;;;23.01;41.37;100077.56;4517731;31;33952;-57
2021/04/23 01:13:34;;;;;;;6.18;2.20;;;;;;;23.01;41.33;100093.06;4530837;31;33901;-60
2021/04/23 01:16:03;;;;;;;5.97;2.22;;;;;;;23.01;41.34;100088.47;4517520;31;33288;-60
2021/04/23 01:18:30;;;;;;;4.20;1.95;;;;;;;23.00;41.33;100086.81;4522489;31;33777;-61
2021/04/23 01:21:05;;;;;;;5.50;2.30;;;;;;;23.00;41.35;100083.25;4514791;31;33879;-61
2021/04/23 01:23:34;;;;;;;5.25;1.95;;;;;;;23.01;41.38;100083.03;4514418;31;34342;-60
2021/04/23 01:26:02;;;;;;;6.07;2.20;;;;;;;23.01;41.33;100077.56;4523240;31;32835;-60
2021/04/23 01:28:29;;;;;;;8.82;2.58;;;;;;;23.01;41.32;100074.03;4514585;31;33987;-60
2021/04/23 01:30:57;;;;;;;6.68;1.90;;;;;;;23.00;41.36;100075.91;4514980;31;34720;-62
2021/04/23 01:33:25;;;;;;;6.50;2.35;;;;;;;23.00;41.33;100075.91;4516016;31;34917;-60
2021/04/23 01:35:52;;;;;;;5.03;1.83;;;;;;;22.99;41.37;100071.53;4525336;31;34272;-61
2021/04/23 01:38:20;;;;;;;7.28;2.45;;;;;;;22.99;41.35;100070.66;4532710;31;33842;-60
2021/04/23 01:40:49;;;;;;;4.40;1.92;;;;;;;22.99;41.38;100065.22;4516232;31;33957;-61
2021/04/23 01:43:17;;;;;;;5.20;1.98;;;;;;;22.99;41.37;100066.09;4516667;31;33695;-60
2021/04/23 01:45:44;;;;;;;6.47;2.67;;;;;;;22.98;41.36;100072.56;4516013;31;33472;-61
2021/04/23 01:48:12;;;;;;;6.32;2.10;;;;;;;22.98;41.40;100063.56;4516830;31;33675;-60
2021/04/23 01:50:40;;;;;;;4.28;1.67;;;;;;;22.98;41.38;100075.28;4531005;31;33800;-58
2021/04/23 01:53:07;;;;;;;5.95;1.90;;;;;;;22.98;41.33;100074.44;4532924;31;33776;-61
2021/04/23 01:55:34;;;;;;;5.28;1.90;;;;;;;22.97;41.31;100070.91;4517691;31;33325;-61
2021/04/23 01:58:02;;;;;;;6.85;1.80;;;;;;;22.97;41.33;100073.63;4518098;31;33788;-61
2021/04/23 02:00:34;;;;;;;4.05;1.77;;;;;;;22.96;41.31;100074.69;4516480;31;33951;-61
2021/04/23 02:03:04;;;;;;;7.97;1.95;;;;;;;22.96;41.33;100071.13;4532457;31;34340;-60
2021/04/23 02:05:31;;;;;;;7.10;1.85;;;;;;;22.96;41.36;100074.69;4513058;31;33302;-61
2021/04/23 02:07:59;;;;;;;6.87;1.77;;;;;;;22.95;41.44;100075.72;4519238;31;33788;-61
2021/04/23 02:10:36;;;;;;;5.05;1.77;;;;;;;22.95;41.43;100078.44;4516734;31;34559;-60
2021/04/23 02:13:03;;;;;;;7.12;2.05;;;;;;;22.93;41.45;100075.09;4517007;31;34447;-60
2021/04/23 02:15:30;;;;;;;3.75;1.70;;;;;;;22.95;41.40;100072.19;4519940;31;33102;-61
2021/04/23 02:17:58;;;;;;;4.90;2.10;;;;;;;22.95;41.34;100073.00;4520181;31;33564;-58
2021/04/23 02:20:28;;;;;;;4.65;1.87;;;;;;;22.95;41.31;100077.63;4516024;31;34987;-62
2021/04/23 02:22:56;;;;;;;6.18;2.20;;;;;;;22.94;41.33;100075.94;4516303;31;34133;-59
2021/04/23 02:25:23;;;;;;;6.87;2.05;;;;;;;22.95;41.42;100080.34;4515982;31;34278;-60
2021/04/23 02:27:51;;;;;;;7.43;1.80;;;;;;;22.94;41.43;100089.53;4518369;31;35059;-61
2021/04/23 02:30:27;;;;;;;5.80;2.03;;;;;;;22.93;41.44;100091.41;4532349;31;34606;-61
2021/04/23 02:32:54;;;;;;;4.12;1.42;;;;;;;22.93;41.50;100096.88;4528406;31;33910;-60
2021/04/23 02:35:22;;;;;;;9.70;2.10;;;;;;;22.93;41.39;100091.41;4522083;31;33463;-61
2021/04/23 02:37:49;;;;;;;4.87;1.60;;;;;;;22.93;41.39;100096.88;4517874;31;33792;-60
2021/04/23 02:40:19;;;;;;;6.65;1.60;;;;;;;22.92;41.44;100087.87;4532314;31;33841;-60
2021/04/23 02:42:46;;;;;;;7.00;2.10;;;;;;;22.91;41.42;100093.53;4529683;31;33709;-59
2021/04/23 02:45:16;;;;;;;5.40;1.92;;;;;;;22.91;41.58;100099.81;4525984;31;33319;-60
2021/04/23 02:47:43;;;;;;;5.60;1.83;;;;;;;22.91;41.52;100104.44;4530025;31;33873;-59
2021/04/23 02:50:11;;;;;;;5.47;1.80;;;;;;;22.92;41.42;100098.75;4515843;31;34707;-60
2021/04/23 02:52:38;;;;;;;5.53;2.00;;;;;;;22.91;41.49;100102.53;4516193;31;34579;-61
2021/04/23 02:55:06;;;;;;;6.53;2.03;;;;;;;22.90;41.34;100106.31;4525409;31;33219;-62
2021/04/23 02:57:33;;;;;;;4.87;1.70;;;;;;;22.89;41.56;100112.78;4531475;31;33877;-59
2021/04/23 03:00:00;;;;;;;5.40;1.83;;;;;;;22.90;41.58;100114.47;4516123;31;33663;-61
2021/04/23 03:02:27;;;;;;;6.32;1.60;;;;;;;22.90;41.57;100119.09;4516108;31;33785;-60
2021/04/23 03:04:56;;;;;;;4.97;1.87;;;;;;;22.90;41.57;100117.19;4515802;31;33302;-61
2021/04/23 03:07:23;;;;;;;9.35;2.05;;;;;;;22.90;41.56;100119.09;4515982;31;35586;-60
2021/04/23 03:09:51;;;;;;;8.65;1.73;;;;;;;22.90;41.47;100116.38;4516371;31;33830;-60
2021/04/23 03:12:18;;;;;;;4.00;1.55;;;;;;;22.91;41.52;100128.91;4515986;31;33924;-61
2021/04/23 03:14:45;;;;;;;5.68;1.90;;;;;;;22.88;41.50;100124.69;4522358;31;33627;-60
2021/04/23 03:17:12;;;;;;;6.97;1.80;;;;;;;22.89;41.34;100125.56;4516066;31;33821;-61
2021/04/23 03:19:39;;;;;;;6.25;1.87;;;;;;;22.89;41.47;100131.00;4515402;31;34704;-60
2021/04/23 03:22:07;;;;;;;11.48;1.73;;;;;;;22.88;41.36;100135.56;4516199;31;34442;-61
2021/04/23 03:24:34;;;;;;;4.28;1.75;;;;;;;22.88;41.36;100134.75;4522572;31;34192;-62
2021/04/23 03:27:01;;;;;;;4.65;1.60;;;;;;;22.88;41.35;100135.56;4532015;31;34519;-60
2021/04/23 03:29:28;;;;;;;3.22;1.75;;;;;;;22.88;41.39;100129.31;4524406;31;35445;-61
2021/04/23 03:31:55;;;;;;;3.97;1.40;;;;;;;22.88;41.50;100132.03;4528893;31;33803;-59
2021/04/23 03:34:22;;;;;;;4.93;1.83;;;;;;;22.87;41.42;100139.34;4515987;31;34044;-60
2021/04/23 03:36:50;;;;;;;4.22;1.92;;;;;;;22.87;41.52;100142.06;4524484;31;34436;-61
2021/04/23 03:39:17;;;;;;;3.75;1.65;;;;;;;22.87;41.53;100133.06;4520287;31;33632;-60
2021/04/23 03:41:45;;;;;;;5.93;1.60;;;;;;;22.88;41.49;100137.47;4516421;31;33535;-61
2021/04/23 03:44:12;;;;;;;4.18;1.65;;;;;;;22.87;41.44;100141.25;4515525;31;33947;-60
2021/04/23 03:46:39;;;;;;;6.32;1.45;;;;;;;22.87;41.48;100135.78;4515674;31;34431;-60
2021/04/23 03:49:11;;;;;;;4.55;1.87;;;;;;;22.86;41.51;100136.84;4515567;31;34787;-61
2021/04/23 03:51:38;;;;;;;5.60;1.70;;;;;;;22.86;41.48;100131.41;4515747;31;33823;-61
2021/04/23 03:54:05;;;;;;;4.87;1.65;;;;;;;22.86;41.53;100140.41;4515876;31;33368;-61
2021/04/23 03:56:32;;;;;;;4.40;1.50;;;;;;;22.84;41.56;100128.87;4514364;31;33811;-61
2021/04/23 03:58:59;;;;;;;6.28;1.70;;;;;;;22.86;41.53;100132.25;4515574;31;33867;-60
2021/04/23 04:01:30;;;;;;;5.30;2.00;;;;;;;22.85;41.50;100135.19;4515290;31;34958;-61
2021/04/23 04:03:58;;;;;;;5.45;1.55;;;;;;;22.86;41.60;100139.56;4515125;31;34042;-61
2021/04/23 04:06:25;;;;;;;4.30;1.60;;;;;;;22.86;41.55;100155.91;4515367;31;33928;-61
2021/04/23 04:08:52;;;;;;;5.78;1.65;;;;;;;22.86;41.55;100161.34;4515634;31;34760;-61
2021/04/23 04:11:20;;;;;;;5.72;1.60;;;;;;;22.84;41.65;100161.53;4515549;31;34823;-60
2021/04/23 04:13:47;;;;;;;4.62;1.42;;;;;;;22.84;41.63;100168.88;4520824;31;33392;-61
2021/04/23 04:16:14;;;;;;;3.90;1.60;;;;;;;22.84;41.62;100166.16;4525864;31;33721;-60
2021/04/23 04:18:42;;;;;;;6.50;1.50;;;;;;;22.84;41.63;100175.13;4530685;31;33911;-58
2021/04/23 04:21:10;;;;;;;5.97;1.52;;;;;;;22.84;41.63;100177.84;4515263;31;33593;-60
2021/04/23 04:23:37;;;;;;;6.53;1.60;;;;;;;22.85;41.64;100184.16;4515494;31;33334;-61
2021/04/23 04:26:04;;;;;;;8.18;1.80;;;;;;;22.84;41.64;100183.31;4515287;31;33530;-60
2021/04/23 04:28:31;;;;;;;6.40;1.77;;;;;;;22.84;41.67;100185.19;4516720;31;34705;-61
2021/04/23 04:30:59;;;;;;;4.87;1.73;;;;;;;22.85;41.64;100192.31;4531371;31;33730;-61
2021/04/23 04:33:45;;;;;;;5.47;1.42;;;;;;;22.85;41.71;100205.94;4526332;31;33248;-61
2021/04/23 04:36:13;;;;;;;5.07;1.45;;;;;;;22.86;41.69;100207.59;4517174;31;33821;-62
2021/04/23 04:38:40;;;;;;;5.00;1.67;;;;;;;22.84;41.60;100206.97;4515097;31;33544;-61
2021/04/23 04:41:07;;;;;;;6.45;1.58;;;;;;;22.83;41.63;100211.56;4515315;31;33821;-61
2021/04/23 04:43:34;;;;;;;4.50;1.60;;;;;;;22.85;41.70;100216.81;4518747;31;33236;-60
2021/04/23 04:46:01;;;;;;;6.45;1.80;;;;;;;22.84;41.79;100215.12;4531025;31;33860;-61
2021/04/23 04:48:28;;;;;;;4.50;1.50;;;;;;;22.83;41.76;100221.62;4526756;31;33556;-60
2021/04/23 04:50:57;;;;;;;8.55;1.60;;;;;;;22.83;41.69;100217.00;4529689;31;33657;-60
2021/04/23 04:53:24;;;;;;;4.97;1.60;;;;;;;22.82;41.66;100226.22;4530998;31;35066;-61
2021/04/23 04:55:53;;;;;;;6.35;1.60;;;;;;;22.83;41.72;100237.94;4515522;31;34442;-59
2021/04/23 04:58:23;;;;;;;10.73;1.77;;;;;;;22.82;41.66;100231.66;4500300;31;33386;-61
2021/04/23 05:00:50;;;;;;;5.05;1.60;;;;;;;22.82;41.74;100239.00;4518475;31;34463;-58
2021/04/23 05:03:19;;;;;;;4.93;2.10;;;;;;;22.83;41.69;100237.94;4520905;31;33682;-59
2021/04/23 05:05:46;;;;;;;6.10;1.40;;;;;;;22.83;41.63;100244.22;4523281;31;33823;-59
2021/04/23 05:08:13;;;;;;;2.62;1.50;;;;;;;22.82;41.66;100242.56;4519132;31;33915;-60
2021/04/23 05:10:40;;;;;;;3.58;1.45;;;;;;;22.83;41.72;100240.66;4519507;31;33921;-58
2021/04/23 05:13:07;;;;;;;5.37;1.40;;;;;;;22.82;41.68;100250.72;4533004;31;34009;-60
2021/04/23 05:15:34;;;;;;;5.75;1.60;;;;;;;22.83;41.68;100262.44;4532757;31;33742;-60
2021/04/23 05:18:02;;;;;;;4.80;1.70;;;;;;;22.82;41.65;100260.75;4532777;31;34824;-57
2021/04/23 05:20:29;;;;;;;6.10;1.77;;;;;;;22.83;41.62;100270.59;4533150;31;34329;-59
2021/04/23 05:22:56;;;;;;;8.15;1.92;;;;;;;22.83;41.62;100276.88;4529720;31;33288;-60
2021/04/23 05:25:24;;;;;;;9.20;1.60;;;;;;;22.82;41.43;100277.09;4516635;31;34503;-56
2021/04/23 05:27:51;;;;;;;4.43;1.37;;;;;;;22.82;41.56;100277.09;4516677;31;33698;-61
2021/04/23 05:30:26;;;;;;;4.15;1.55;;;;;;;22.83;41.58;100278.75;4516794;31;33627;-58
2021/04/23 05:32:54;;;;;;;2.35;1.20;;;;;;;22.82;41.57;100280.63;4516706;31;34788;-59
2021/04/23 05:35:25;;;;;;;4.75;1.60;;;;;;;22.83;41.56;100290.47;4516866;31;34728;-57
2021/04/23 05:37:52;;;;;;;5.45;1.92;;;;;;;22.84;41.49;100283.12;4519690;31;33557;-59
2021/04/23 05:40:29;;;;;;;12.43;2.12;;;;;;;22.85;41.47;100287.56;4520100;31;33666;-60
2021/04/23 05:42:57;;;;;;;9.10;2.35;;;;;;;22.84;41.33;100296.75;4527318;31;34533;-60
2021/04/23 05:45:24;;;;;;;13.60;1.95;;;;;;;22.84;40.65;100294.03;4516365;31;33945;-58
2021/04/23 05:47:53;;;;;;;9.73;2.20;;;;;;;22.84;40.50;100288.59;4516543;31;33921;-59
2021/04/23 05:50:20;;;;;;;13.32;2.78;;;;;;;22.84;40.56;100291.31;4527070;31;33800;-59
2021/04/23 05:52:49;;;;;;;12.10;2.37;;;;;;;22.85;40.67;100303.88;4523468;31;33289;-59
2021/04/23 05:55:17;;;;;;;11.50;2.20;;;;;;;22.84;40.69;100299.47;4532252;31;33587;-59
2021/04/23 05:57:45;;;;;;;10.35;2.20;;;;;;;22.85;40.68;100307.44;4532668;31;33919;-59
2021/04/23 06:00:15;;;;;;;10.10;2.70;;;;;;;22.83;40.67;100308.69;4525046;31;33438;-56
2021/04/23 06:02:51;;;;;;;21.60;2.58;;;;;;;22.84;40.58;100305.75;4519742;31;33416;-52
2021/04/23 06:05:19;;;;;;;12.68;2.22;;;;;;;22.85;40.56;100303.88;4524943;31;33776;-50
2021/04/23 06:07:47;;;;;;;10.60;2.05;;;;;;;22.83;40.62;100304.06;4516291;31;33849;-51
2021/04/23 06:10:14;;;;;;;10.30;2.20;;;;;;;22.84;40.67;100305.75;4525069;31;33651;-49
2021/04/23 06:12:42;;;;;;;5.57;2.15;;;;;;;22.83;40.74;100297.78;4532390;31;33066;-49
2021/04/23 06:15:09;;;;;;;7.35;1.95;;;;;;;22.84;40.79;100300.28;4532072;31;33441;-51
2021/04/23 06:17:37;;;;;;;6.03;2.12;;;;;;;22.84;40.83;100303.03;4519757;31;33877;-50
2021/04/23 06:20:11;;;;;;;8.90;2.50;;;;;;;22.85;40.88;100301.16;4515321;31;34609;-55
2021/04/23 06:22:39;;;;;;;14.77;2.17;;;;;;;22.84;40.94;100305.75;4516171;31;33474;-54
2021/04/23 06:25:07;;;;;;;5.55;1.75;;;;;;;22.86;40.98;100320.00;4516741;31;34615;-50
2021/04/23 06:27:35;;;;;;;8.57;2.37;;;;;;;22.86;40.98;100319.16;4516030;31;34935;-51
2021/04/23 06:30:06;;;;;;;6.62;2.00;;;;;;;22.86;41.00;100325.44;4515931;31;33906;-49
2021/04/23 06:32:33;;;;;;;8.68;2.60;;;;;;;22.87;41.04;100329.81;4516132;31;33591;-54
2021/04/23 06:35:00;;;;;;;8.10;2.50;;;;;;;22.87;41.08;100335.25;4516260;31;33787;-58
2021/04/23 06:37:29;;;;;;;9.48;2.17;;;;;;;22.88;41.05;100341.53;4528210;31;33875;-57
2021/04/23 06:39:56;;;;;;;12.77;2.60;;;;;;;22.87;41.11;100348.87;4532011;31;33556;-59
2021/04/23 06:42:23;;;;;;;7.30;2.03;;;;;;;22.87;41.12;100346.16;4520937;31;33061;-56
2021/04/23 06:44:50;;;;;;;6.87;2.00;;;;;;;22.87;41.11;100348.87;4516062;31;33972;-55
2021/04/23 06:47:17;;;;;;;5.68;1.80;;;;;;;22.88;41.08;100349.69;4526302;31;33946;-58
2021/04/23 06:49:45;;;;;;;15.20;2.62;;;;;;;22.86;41.12;100344.47;4531688;31;34791;-58
2021/04/23 06:52:12;;;;;;;9.50;2.30;;;;;;;22.89;41.04;100352.22;4525724;31;33047;-60
2021/04/23 06:54:39;;;;;;;11.32;2.00;;;;;;;22.88;41.11;100355.13;4507597;31;33750;-59
2021/04/23 06:57:07;;;;;;;6.55;2.30;;;;;;;22.88;40.99;100350.53;4526284;31;34682;-60
2021/04/23 06:59:34;;;;;;;8.30;2.00;;;;;;;22.89;40.91;100354.12;4516170;31;33828;-60
2021/04/23 07:02:02;;;;;;;14.20;3.05;;;;;;;22.87;40.91;100353.47;4522483;31;33291;-60
2021/04/23 07:04:29;;;;;;;8.57;1.85;;;;;;;22.86;40.91;100362.69;4531973;31;34505;-59
2021/04/23 07:06:58;;;;;;;11.57;2.20;;;;;;;22.86;40.87;100354.53;4532047;31;33577;-59
2021/04/23 07:09:24;;;;;;;9.88;1.87;;;;;;;22.86;40.86;100365.41;4532163;31;34874;-58
2021/04/23 07:11:52;;;;;;;7.87;2.12;;;;;;;22.86;40.83;100362.69;4531999;31;34901;-60
2021/04/23 07:14:19;;;;;;;7.75;1.90;;;;;;;22.85;40.82;100355.56;4522976;31;34559;-58
2021/04/23 07:16:46;;;;;;;8.30;1.92;;;;;;;22.85;40.79;100356.41;4522375;31;33726;-59
2021/04/23 07:19:13;;;;;;;12.27;2.60;;;;;;;22.84;40.68;100360.16;4530753;31;34679;-59
2021/04/23 07:21:42;;;;;;;8.50;2.15;;;;;;;22.85;40.66;100361.03;4519417;31;34196;-58
2021/04/23 07:24:09;;;;;;;10.10;2.00;;;;;;;22.86;40.66;100368.12;4531965;31;34594;-58
2021/04/23 07:26:36;;;;;;;6.65;2.15;;;;;;;22.86;40.66;100368.12;4529864;31;33605;-58
2021/04/23 07:29:04;;;;;;;9.23;2.47;;;;;;;22.84;40.66;100362.03;4525566;31;33830;-59
2021/04/23 07:31:31;;;;;;;8.45;2.50;;;;;;;22.84;40.52;100368.31;4517363;31;33276;-60
2021/04/23 07:34:00;;;;;;;8.18;2.47;;;;;;;22.87;40.51;100365.19;4524928;31;33824;-59
2021/04/23 07:36:28;;;;;;;9.57;2.85;;;;;;;22.88;40.54;100371.47;4531948;31;33579;-53
2021/04/23 07:38:55;;;;;;;8.88;2.47;;;;;;;22.88;40.56;100371.47;4518106;31;34499;-59
2021/04/23 07:41:22;;;;;;;8.90;2.30;;;;;;;22.89;40.64;100378.59;4515729;31;33204;-59
2021/04/23 07:43:49;;;;;;;10.65;2.35;;;;;;;22.89;40.65;100375.87;4515944;31;33855;-60
2021/04/23 07:46:16;;;;;;;8.88;2.22;;;;;;;22.89;40.69;100373.16;4515604;31;33921;-59
2021/04/23 07:48:43;;;;;;;9.23;2.15;;;;;;;22.91;40.71;100379.25;4515628;31;33982;-50
2021/04/23 07:51:12;;;;;;;7.43;2.22;;;;;;;22.91;40.72;100374.66;4529923;31;33345;-53
2021/04/23 07:53:39;;;;;;;9.07;2.15;;;;;;;22.90;40.80;100374.88;4531408;31;34031;-50
2021/04/23 07:56:06;;;;;;;7.90;2.20;;;;;;;22.90;40.84;100381.12;4531256;31;33952;-58
2021/04/23 07:58:33;;;;;;;9.50;2.05;;;;;;;22.91;40.83;100381.97;4531702;31;33745;-51
2021/04/23 08:01:01;;;;;;;10.23;2.35;;;;;;;22.91;40.88;100384.69;4531407;31;33290;-49
2021/04/23 08:03:32;;;;;;;8.20;2.20;;;;;;;22.89;40.94;100384.88;4531320;31;35121;-50
2021/04/23 08:05:59;;;;;;;7.60;2.10;;;;;;;22.90;40.98;100388.47;4531396;31;33843;-60
2021/04/23 08:08:46;;;;;;;6.55;1.92;;;;;;;22.92;40.96;100386.37;4524615;31;34047;-56
2021/04/23 08:11:14;;;;;;;8.10;2.33;;;;;;;22.92;40.99;100397.25;4515442;31;33329;-59
2021/04/23 08:13:41;;;;;;;11.50;2.40;;;;;;;22.92;41.01;100391.81;4515599;31;34613;-56
2021/04/23 08:16:10;;;;;;;10.88;2.40;;;;;;;22.92;41.04;100395.38;4515416;31;33656;-51
2021/04/23 08:18:39;;;;;;;6.53;1.83;;;;;;;22.92;41.00;100395.38;4515425;31;33688;-59
2021/04/23 08:21:06;;;;;;;12.48;2.30;;;;;;;22.94;41.08;100400.59;4515424;31;33773;-52
2021/04/23 08:23:34;;;;;;;5.90;1.95;;;;;;;22.94;41.06;100394.31;4515201;31;33785;-54
2021/04/23 08:26:03;;;;;;;10.77;2.37;;;;;;;22.95;41.08;100406.91;4518641;31;33981;-51
2021/04/23 08:28:31;;;;;;;8.77;1.85;;;;;;;22.95;41.10;100401.44;4531373;31;33582;-57
2021/04/23 08:30:59;;;;;;;8.70;2.30;;;;;;;22.95;41.10;100401.44;4531440;31;33254;-52
2021/04/23 08:33:26;;;;;;;7.62;2.15;;;;;;;22.95;41.13;100398.72;4531201;31;33850;-59
2021/04/23 08:35:53;;;;;;;8.02;1.92;;;;;;;22.93;41.23;100401.62;4530848;31;34263;-57
2021/04/23 08:38:25;;;;;;;10.07;2.15;;;;;;;22.94;41.21;100397.88;4531139;31;33820;-54
2021/04/23 08:40:52;;;;;;;10.00;2.00;;;;;;;22.95;41.14;100398.72;4530981;31;33093;-54
2021/04/23 08:43:20;;;;;;;11.07;2.53;;;;;;;22.94;41.09;100397.03;4532054;31;33853;-60
2021/04/23 08:45:48;;;;;;;9.02;2.15;;;;;;;22.94;40.99;100391.59;4532747;31;33820;-60
2021/04/23 08:48:15;;;;;;;6.87;1.92;;;;;;;22.91;40.99;100388.25;4532904;31;33780;-57
2021/04/23 08:50:42;;;;;;;13.65;2.65;;;;;;;22.92;40.97;100400.81;4518613;31;33390;-60
2021/04/23 08:53:11;;;;;;;11.10;1.80;;;;;;;22.91;40.98;100393.69;4532912;31;34533;-59
2021/04/23 08:55:38;;;;;;;10.02;2.03;;;;;;;22.92;40.99;100398.09;4518544;31;33887;-50
2021/04/23 08:58:13;;;;;;;11.30;2.28;;;;;;;22.93;41.03;100401.62;4532690;31;33933;-53
2021/04/23 09:00:41;;;;;;;8.27;2.00;;;;;;;22.92;41.01;100398.09;4531579;31;33564;-54
2021/04/23 09:03:09;;;;;;;11.00;2.42;;;;;;;22.95;41.05;100402.28;4524232;31;33835;-56
2021/04/23 09:05:36;;;;;;;10.75;2.45;;;;;;;22.95;41.03;100401.44;4525316;31;34818;-59
2021/04/23 09:08:05;;;;;;;7.68;1.90;;;;;;;22.94;41.08;100397.03;4518914;31;33531;-52
2021/04/23 09:10:34;;;;;;;10.55;2.17;;;;;;;22.94;41.07;100391.59;4520180;31;34085;-54
2021/04/23 09:13:07;;;;;;;7.40;2.00;;;;;;;22.94;41.07;100386.16;4516583;31;34116;-51
2021/04/23 09:15:34;;;;;;;8.52;2.00;;;;;;;22.94;41.09;100389.69;4516886;31;33870;-50
2021/04/23 09:18:07;;;;;;;10.38;2.10;;;;;;;22.95;41.11;100376.97;4516709;31;34562;-50
2021/04/23 09:20:35;;;;;;;5.18;1.92;;;;;;;22.94;41.14;100375.25;4516731;31;34226;-52
2021/04/23 09:23:17;;;;;;;8.63;2.30;;;;;;;22.94;41.17;100392.41;4531041;31;33770;-51
2021/04/23 09:25:45;;;;;;;10.63;1.95;;;;;;;22.95;41.08;100369.63;4532633;31;33655;-50
2021/04/23 09:28:12;;;;;;;5.87;1.73;;;;;;;22.95;41.21;100377.78;4518141;31;33750;-51
2021/04/23 09:30:40;;;;;;;8.85;2.17;;;;;;;22.94;41.25;100376.09;4532631;31;33252;-52
2021/04/23 09:33:26;;;;;;;7.62;2.00;;;;;;;22.93;41.29;100366.25;4532671;31;33863;-51
2021/04/23 09:35:53;;;;;;;6.70;2.17;;;;;;;22.95;41.21;100369.63;4532435;31;33913;-53
2021/04/23 09:38:20;;;;;;;6.22;1.70;;;;;;;22.94;41.33;100364.38;4532319;31;35612;-56
2021/04/23 09:40:47;;;;;;;6.85;1.83;;;;;;;22.93;41.35;100360.81;4532530;31;34534;-56
2021/04/23 09:43:15;;;;;;;7.90;1.98;;;;;;;22.93;41.37;100355.37;4532573;31;34561;-55
2021/04/23 09:45:50;;;;;;;7.82;2.40;;;;;;;22.94;41.31;100353.50;4517969;31;34861;-52
2021/04/23 09:48:21;;;;;;;9.40;2.33;;;;;;;22.95;41.29;100353.31;4532686;31;34846;-55
2021/04/23 09:50:49;;;;;;;5.45;1.70;;;;;;;22.93;41.38;100352.66;4517964;31;33503;-49
2021/04/23 09:53:16;;;;;;;8.82;2.25;;;;;;;22.93;41.29;100358.09;4532605;31;33839;-50
2021/04/23 09:55:43;;;;;;;7.40;1.85;;;;;;;22.93;41.41;100360.81;4532630;31;33974;-53
2021/04/23 09:58:10;;;;;;;6.40;1.62;;;;;;;22.94;41.34;100367.09;4526807;31;33932;-49
2021/04/23 10:00:40;;;;;;;5.68;1.75;;;;;;;22.95;41.43;100368.78;4501870;31;33408;-54
2021/04/23 10:03:07;;;;;;;7.32;2.25;;;;;;;22.94;41.38;100373.38;4514970;31;33862;-55
2021/04/23 10:05:39;;;;;;;5.47;2.03;;;;;;;22.94;41.42;100373.38;4516321;31;34873;-56
2021/04/23 10:08:07;;;;;;;6.00;2.00;;;;;;;22.95;41.37;100374.25;4518315;31;33607;-51
2021/04/23 10:10:36;;;;;;;7.80;1.70;;;;;;;22.96;41.43;100370.47;4532648;31;33464;-60
2021/04/23 10:13:06;;;;;;;5.20;1.80;;;;;;;22.96;41.37;100365.84;4532062;31;33704;-59
2021/04/23 10:15:33;;;;;;;;;;;;;;;22.94;41.43;100365.22;4532528;31;33851;-53
2021/04/23 10:18:05;;;;;;;11.15;2.37;;;;;;;23.05;41.20;100363.75;4532251;31;33555;-52
2021/04/23 10:20:38;;;;;;;6.07;1.80;;;;;;;22.98;41.39;100357.47;4532327;31;33973;-51
2021/04/23 10:23:07;;;;;;;7.47;2.10;;;;;;;22.96;41.42;100360.41;4532319;31;33640;-52
2021/04/23 10:25:34;;;;;;;6.30;1.90;;;;;;;22.95;41.44;100349.75;4532108;31;33949;-64
2021/04/23 10:28:03;;;;;;;9.77;2.72;;;;;;;22.96;41.50;100345.97;4532085;31;33744;-54
2021/04/23 10:30:33;;;;;;;22.48;4.12;;;;;;;22.94;41.60;100348.87;4532634;31;33908;-50
2021/04/23 10:33:10;;;;;;;17.58;5.30;;;;;;;22.95;41.61;100349.75;4532102;31;33817;-59
2021/04/23 10:35:38;;;;;;;22.37;6.15;;;;;;;22.96;41.71;100341.38;4532208;31;34265;-50
2021/04/23 10:38:12;;;;;;;17.80;7.68;;;;;;;22.97;41.75;100353.91;4531821;31;34683;-53
2021/04/23 10:40:41;;;;;;;20.27;8.07;;;;;;;22.97;42.07;100337.59;4492791;31;33568;-56
2021/04/23 10:43:08;;;;;;;19.85;8.30;;;;;;;23.01;42.39;100340.72;4516068;31;33565;-60
2021/04/23 10:46:06;;;;;;;22.65;7.75;;;;;;;23.02;42.62;100348.69;4515980;31;33930;-58
2021/04/23 10:48:44;;;;;;;19.00;7.97;;;;;;;23.05;42.29;100337.38;4515962;31;33667;-55
2021/04/23 10:51:22;;;;;;;24.50;8.18;;;;;;;23.05;42.08;100353.72;4516112;31;33316;-56
2021/04/23 10:53:51;;;;;;;17.10;8.10;;;;;;;23.04;42.19;100343.03;4515983;31;34755;-52
2021/04/23 10:56:29;;;;;;;19.58;8.75;;;;;;;23.02;42.15;100343.22;4516048;31;34691;-50
2021/04/23 10:59:02;;;;;;;19.45;8.07;;;;;;;23.05;42.02;100355.59;4526364;31;34246;-54
2021/04/23 11:01:31;;;;;;;20.58;7.70;;;;;;;23.04;42.00;100359.37;4531823;31;33348;-52
2021/04/23 11:04:05;;;;;;;20.02;7.22;;;;;;;23.04;42.03;100365.66;4531696;31;33836;-59
2021/04/23 11:06:42;;;;;;;17.12;7.40;;;;;;;23.03;42.02;100336.72;4531286;31;33842;-58
2021/04/23 11:09:13;;;;;;;13.30;6.47;;;;;;;23.03;42.04;100347.62;4522676;31;34572;-60
2021/04/23 11:11:42;;;;;;;14.80;6.60;;;;;;;23.02;42.09;100345.13;4516004;31;33424;-57
2021/04/23 11:14:29;;;;;;;16.50;6.55;;;;;;;23.02;42.04;100339.69;4515808;31;33840;-51
2021/04/23 11:17:18;;;;;;;14.70;6.18;;;;;;;23.00;42.07;100345.34;4522944;31;33878;-59
2021/04/23 11:19:50;;;;;;;14.48;6.47;;;;;;;23.02;41.95;100337.78;4531786;31;33877;-58
2021/04/23 11:22:22;;;;;;;15.50;6.75;;;;;;;23.00;42.04;100342.63;4531714;31;33385;-50
2021/04/23 11:25:00;;;;;;;16.20;6.10;;;;;;;22.99;42.07;100340.94;4532341;31;34567;-53
2021/04/23 11:27:27;;;;;;;12.43;5.87;;;;;;;23.01;41.99;100346.19;4531454;31;33599;-58
2021/04/23 11:29:54;;;;;;;13.30;5.50;;;;;;;23.00;42.03;100350.78;4532164;31;34707;-59
2021/04/23 11:32:25;;;;;;;15.20;5.30;;;;;;;23.01;41.93;100338.84;4531939;31;34420;-59